sensor_id;sensor_type;location;lat;lon;timestamp;pressure;altitude;pressure_sealevel;temperature;humidity
56042;BME280;48756;41.374;2.066;2024-02-23T00:01:31;99818.66;;;15.61;94.06
56042;BME280;48756;41.374;2.066;2024-02-23T00:03:56;99817.28;;;15.52;93.77
56042;BME280;48756;41.374;2.066;2024-02-23T00:06:22;99824.84;;;15.40;92.82
56042;BME280;48756;41.374;2.066;2024-02-23T00:08:52;99819.72;;;15.37;91.96
56042;BME280;48756;41.374;2.066;2024-02-23T00:11:19;99815.09;;;15.23;90.07
56042;BME280;48756;41.374;2.066;2024-02-23T00:13:45;99823.75;;;15.25;88.93
56042;BME280;48756;41.374;2.066;2024-02-23T00:16:10;99836.28;;;14.76;89.76
56042;BME280;48756;41.374;2.066;2024-02-23T00:18:36;99823.81;;;15.03;88.45
56042;BME280;48756;41.374;2.066;2024-02-23T00:21:01;99834.94;;;15.08;88.62
56042;BME280;48756;41.374;2.066;2024-02-23T00:23:27;99822.53;;;14.71;89.91
56042;BME280;48756;41.374;2.066;2024-02-23T00:25:53;99807.84;;;14.87;87.97
56042;BME280;48756;41.374;2.066;2024-02-23T00:28:19;99797.31;;;14.67;88.38
56042;BME280;48756;41.374;2.066;2024-02-23T00:30:44;99799.22;;;14.63;89.69
56042;BME280;48756;41.374;2.066;2024-02-23T00:33:10;99794.88;;;14.40;91.23
56042;BME280;48756;41.374;2.066;2024-02-23T00:35:38;99798.41;;;14.39;91.15
56042;BME280;48756;41.374;2.066;2024-02-23T00:38:03;99792.00;;;14.25;92.58
56042;BME280;48756;41.374;2.066;2024-02-23T00:40:29;99802.56;;;14.45;93.41
56042;BME280;48756;41.374;2.066;2024-02-23T00:42:54;99802.13;;;14.34;94.16
56042;BME280;48756;41.374;2.066;2024-02-23T00:45:20;99809.31;;;14.52;94.22
56042;BME280;48756;41.374;2.066;2024-02-23T00:47:45;99815.13;;;14.37;94.98
56042;BME280;48756;41.374;2.066;2024-02-23T00:50:13;99813.66;;;14.30;94.55
56042;BME280;48756;41.374;2.066;2024-02-23T00:52:39;99817.03;;;14.55;94.76
56042;BME280;48756;41.374;2.066;2024-02-23T00:55:06;99814.06;;;14.41;94.34
56042;BME280;48756;41.374;2.066;2024-02-23T00:57:31;99810.06;;;14.32;97.52
56042;BME280;48756;41.374;2.066;2024-02-23T00:59:57;99831.66;;;14.16;98.16
56042;BME280;48756;41.374;2.066;2024-02-23T01:02:22;99817.31;;;14.26;96.37
56042;BME280;48756;41.374;2.066;2024-02-23T01:04:48;99819.06;;;14.25;96.92
56042;BME280;48756;41.374;2.066;2024-02-23T01:07:13;99805.97;;;14.03;96.57
56042;BME280;48756;41.374;2.066;2024-02-23T01:09:38;99820.59;;;14.31;96.99
56042;BME280;48756;41.374;2.066;2024-02-23T01:12:04;99821.63;;;14.50;95.88
56042;BME280;48756;41.374;2.066;2024-02-23T01:14:29;99841.50;;;14.56;96.79
56042;BME280;48756;41.374;2.066;2024-02-23T01:16:54;99835.41;;;14.32;96.70
56042;BME280;48756;41.374;2.066;2024-02-23T01:19:20;99845.56;;;14.63;96.93
56042;BME280;48756;41.374;2.066;2024-02-23T01:21:45;99852.56;;;14.62;96.13
56042;BME280;48756;41.374;2.066;2024-02-23T01:24:10;99852.84;;;14.33;96.82
56042;BME280;48756;41.374;2.066;2024-02-23T01:26:35;99866.00;;;14.31;96.66
56042;BME280;48756;41.374;2.066;2024-02-23T01:29:01;99882.84;;;14.48;94.87
56042;BME280;48756;41.374;2.066;2024-02-23T01:31:27;99888.91;;;14.50;96.46
56042;BME280;48756;41.374;2.066;2024-02-23T01:33:52;99904.00;;;14.20;98.27
56042;BME280;48756;41.374;2.066;2024-02-23T01:36:17;99910.09;;;14.20;98.09
56042;BME280;48756;41.374;2.066;2024-02-23T01:38:43;99890.63;;;14.27;98.74
56042;BME280;48756;41.374;2.066;2024-02-23T01:41:08;99860.88;;;14.28;99.48
56042;BME280;48756;41.374;2.066;2024-02-23T01:43:33;99851.31;;;14.27;98.68
56042;BME280;48756;41.374;2.066;2024-02-23T01:45:59;99843.81;;;14.40;98.22
56042;BME280;48756;41.374;2.066;2024-02-23T01:48:24;99825.31;;;14.45;98.86
56042;BME280;48756;41.374;2.066;2024-02-23T01:50:50;99811.22;;;14.47;96.84
56042;BME280;48756;41.374;2.066;2024-02-23T01:53:15;99789.63;;;14.19;97.19
56042;BME280;48756;41.374;2.066;2024-02-23T01:55:41;99772.94;;;14.21;98.66
56042;BME280;48756;41.374;2.066;2024-02-23T01:58:07;99771.28;;;14.19;98.64
56042;BME280;48756;41.374;2.066;2024-02-23T02:00:32;99768.19;;;14.31;98.56
56042;BME280;48756;41.374;2.066;2024-02-23T02:03:02;99752.03;;;14.41;97.65
56042;BME280;48756;41.374;2.066;2024-02-23T02:05:27;99761.13;;;14.55;97.54
56042;BME280;48756;41.374;2.066;2024-02-23T02:07:53;99763.94;;;14.28;97.84
56042;BME280;48756;41.374;2.066;2024-02-23T02:10:24;99767.81;;;14.40;98.30
56042;BME280;48756;41.374;2.066;2024-02-23T02:12:49;99780.59;;;14.49;97.35
56042;BME280;48756;41.374;2.066;2024-02-23T02:15:15;99771.63;;;14.55;97.45
56042;BME280;48756;41.374;2.066;2024-02-23T02:17:40;99782.41;;;14.47;96.38
56042;BME280;48756;41.374;2.066;2024-02-23T02:20:05;99784.59;;;14.58;96.55
56042;BME280;48756;41.374;2.066;2024-02-23T02:22:33;99802.94;;;14.58;95.47
56042;BME280;48756;41.374;2.066;2024-02-23T02:24:59;99809.25;;;14.54;97.71
56042;BME280;48756;41.374;2.066;2024-02-23T02:27:24;99826.22;;;14.65;96.50
56042;BME280;48756;41.374;2.066;2024-02-23T02:29:50;99807.31;;;14.79;97.13
56042;BME280;48756;41.374;2.066;2024-02-23T02:32:15;99791.16;;;14.68;96.45
56042;BME280;48756;41.374;2.066;2024-02-23T02:34:40;99780.81;;;14.65;98.16
56042;BME280;48756;41.374;2.066;2024-02-23T02:37:06;99787.75;;;14.66;97.19
56042;BME280;48756;41.374;2.066;2024-02-23T02:39:31;99785.25;;;14.63;96.49
56042;BME280;48756;41.374;2.066;2024-02-23T02:41:57;99791.16;;;14.68;97.97
56042;BME280;48756;41.374;2.066;2024-02-23T02:44:22;99788.38;;;14.73;98.33
56042;BME280;48756;41.374;2.066;2024-02-23T02:46:47;99775.13;;;14.76;97.66
56042;BME280;48756;41.374;2.066;2024-02-23T02:49:13;99762.53;;;14.84;97.13
56042;BME280;48756;41.374;2.066;2024-02-23T02:51:38;99761.66;;;14.63;95.10
56042;BME280;48756;41.374;2.066;2024-02-23T02:54:04;99775.47;;;14.23;98.31
56042;BME280;48756;41.374;2.066;2024-02-23T02:56:29;99785.00;;;14.25;99.38
56042;BME280;48756;41.374;2.066;2024-02-23T02:58:55;99775.41;;;14.02;99.98
56042;BME280;48756;41.374;2.066;2024-02-23T03:01:20;99756.31;;;13.77;100.00
56042;BME280;48756;41.374;2.066;2024-02-23T03:03:46;99750.81;;;13.85;100.00
56042;BME280;48756;41.374;2.066;2024-02-23T03:06:12;99745.72;;;13.58;100.00
56042;BME280;48756;41.374;2.066;2024-02-23T03:08:37;99756.91;;;13.85;100.00
56042;BME280;48756;41.374;2.066;2024-02-23T03:11:05;99760.81;;;13.73;100.00
56042;BME280;48756;41.374;2.066;2024-02-23T03:13:30;99756.97;;;13.84;100.00
56042;BME280;48756;41.374;2.066;2024-02-23T03:15:56;99767.34;;;14.08;100.00
56042;BME280;48756;41.374;2.066;2024-02-23T03:18:22;99774.16;;;14.13;100.00
56042;BME280;48756;41.374;2.066;2024-02-23T03:20:47;99775.25;;;14.07;99.96
56042;BME280;48756;41.374;2.066;2024-02-23T03:23:12;99765.63;;;14.07;98.30
56042;BME280;48756;41.374;2.066;2024-02-23T03:25:38;99762.41;;;13.77;91.20
56042;BME280;48756;41.374;2.066;2024-02-23T03:28:04;99762.03;;;13.41;87.50
56042;BME280;48756;41.374;2.066;2024-02-23T03:30:32;99760.81;;;13.27;82.96
56042;BME280;48756;41.374;2.066;2024-02-23T03:32:57;99770.44;;;13.00;74.54
56042;BME280;48756;41.374;2.066;2024-02-23T03:35:25;99771.78;;;13.11;70.93
56042;BME280;48756;41.374;2.066;2024-02-23T03:37:53;99771.06;;;12.81;68.10
56042;BME280;48756;41.374;2.066;2024-02-23T03:40:18;99749.19;;;12.84;66.31
56042;BME280;48756;41.374;2.066;2024-02-23T03:42:44;99751.88;;;12.82;66.43
56042;BME280;48756;41.374;2.066;2024-02-23T03:45:09;99757.81;;;12.61;65.39
56042;BME280;48756;41.374;2.066;2024-02-23T03:47:35;99750.75;;;12.89;67.44
56042;BME280;48756;41.374;2.066;2024-02-23T03:50:00;99758.34;;;12.72;67.28
56042;BME280;48756;41.374;2.066;2024-02-23T03:52:26;99752.38;;;12.41;67.30
56042;BME280;48756;41.374;2.066;2024-02-23T03:54:51;99758.09;;;12.53;63.86
56042;BME280;48756;41.374;2.066;2024-02-23T03:57:17;99753.44;;;12.09;64.55
56042;BME280;48756;41.374;2.066;2024-02-23T03:59:51;99756.25;;;12.03;63.13
56042;BME280;48756;41.374;2.066;2024-02-23T04:02:16;99752.53;;;11.82;60.63
56042;BME280;48756;41.374;2.066;2024-02-23T04:04:41;99755.13;;;11.82;59.83
56042;BME280;48756;41.374;2.066;2024-02-23T04:07:07;99744.25;;;11.95;60.65
56042;BME280;48756;41.374;2.066;2024-02-23T04:09:32;99752.19;;;11.92;59.15
56042;BME280;48756;41.374;2.066;2024-02-23T04:11:57;99743.06;;;11.76;60.75
56042;BME280;48756;41.374;2.066;2024-02-23T04:14:23;99744.50;;;11.88;57.81
56042;BME280;48756;41.374;2.066;2024-02-23T04:16:48;99748.81;;;11.59;58.90
56042;BME280;48756;41.374;2.066;2024-02-23T04:19:14;99751.50;;;11.56;57.89
56042;BME280;48756;41.374;2.066;2024-02-23T04:21:39;99760.38;;;11.49;58.15
56042;BME280;48756;41.374;2.066;2024-02-23T04:24:05;99757.97;;;11.43;57.67
56042;BME280;48756;41.374;2.066;2024-02-23T04:26:31;99750.03;;;11.76;57.04
56042;BME280;48756;41.374;2.066;2024-02-23T04:28:57;99758.97;;;11.69;58.73
56042;BME280;48756;41.374;2.066;2024-02-23T04:31:22;99767.50;;;11.44;57.67
56042;BME280;48756;41.374;2.066;2024-02-23T04:33:47;99761.56;;;11.39;58.93
56042;BME280;48756;41.374;2.066;2024-02-23T04:36:13;99781.25;;;11.18;57.81
56042;BME280;48756;41.374;2.066;2024-02-23T04:38:38;99784.69;;;11.20;57.14
56042;BME280;48756;41.374;2.066;2024-02-23T04:41:04;99789.81;;;11.23;58.18
56042;BME280;48756;41.374;2.066;2024-02-23T04:43:30;99793.50;;;11.16;56.60
56042;BME280;48756;41.374;2.066;2024-02-23T04:45:55;99793.53;;;11.15;56.78
56042;BME280;48756;41.374;2.066;2024-02-23T04:48:21;99790.59;;;11.27;56.82
56042;BME280;48756;41.374;2.066;2024-02-23T04:50:46;99792.22;;;11.62;56.43
56042;BME280;48756;41.374;2.066;2024-02-23T04:53:11;99791.25;;;11.35;56.48
56042;BME280;48756;41.374;2.066;2024-02-23T04:55:37;99799.97;;;11.34;56.17
56042;BME280;48756;41.374;2.066;2024-02-23T04:58:02;99801.09;;;11.56;55.52
56042;BME280;48756;41.374;2.066;2024-02-23T05:00:28;99804.06;;;11.43;55.49
56042;BME280;48756;41.374;2.066;2024-02-23T05:02:58;99798.47;;;11.56;55.18
56042;BME280;48756;41.374;2.066;2024-02-23T05:05:24;99796.59;;;11.29;54.27
56042;BME280;48756;41.374;2.066;2024-02-23T05:07:49;99800.63;;;11.72;55.84
56042;BME280;48756;41.374;2.066;2024-02-23T05:10:17;99800.56;;;11.44;53.37
56042;BME280;48756;41.374;2.066;2024-02-23T05:12:42;99796.06;;;11.49;54.92
56042;BME280;48756;41.374;2.066;2024-02-23T05:15:08;99789.59;;;11.62;54.81
56042;BME280;48756;41.374;2.066;2024-02-23T05:17:38;99795.91;;;11.55;53.61
56042;BME280;48756;41.374;2.066;2024-02-23T05:20:04;99797.13;;;11.42;54.56
56042;BME280;48756;41.374;2.066;2024-02-23T05:22:35;99798.50;;;11.24;54.58
56042;BME280;48756;41.374;2.066;2024-02-23T05:25:01;99796.91;;;11.49;54.58
56042;BME280;48756;41.374;2.066;2024-02-23T05:27:26;99797.63;;;11.56;53.14
56042;BME280;48756;41.374;2.066;2024-02-23T05:29:52;99797.50;;;11.90;55.39
56042;BME280;48756;41.374;2.066;2024-02-23T05:32:18;99812.28;;;11.91;57.44
56042;BME280;48756;41.374;2.066;2024-02-23T05:34:44;99796.69;;;11.88;57.04
56042;BME280;48756;41.374;2.066;2024-02-23T05:37:09;99795.34;;;11.73;56.88
56042;BME280;48756;41.374;2.066;2024-02-23T05:39:35;99803.28;;;11.70;60.17
56042;BME280;48756;41.374;2.066;2024-02-23T05:42:00;99828.94;;;11.56;59.48
56042;BME280;48756;41.374;2.066;2024-02-23T05:44:25;99833.03;;;11.64;58.24
56042;BME280;48756;41.374;2.066;2024-02-23T05:46:51;99838.69;;;11.48;59.54
56042;BME280;48756;41.374;2.066;2024-02-23T05:49:16;99841.34;;;11.46;56.06
56042;BME280;48756;41.374;2.066;2024-02-23T05:51:42;99856.59;;;11.61;60.66
56042;BME280;48756;41.374;2.066;2024-02-23T05:54:08;99856.56;;;11.63;55.46
56042;BME280;48756;41.374;2.066;2024-02-23T05:56:34;99859.13;;;11.64;57.17
56042;BME280;48756;41.374;2.066;2024-02-23T05:58:59;99866.38;;;11.53;57.01
56042;BME280;48756;41.374;2.066;2024-02-23T06:01:24;99878.22;;;11.34;62.11
56042;BME280;48756;41.374;2.066;2024-02-23T06:03:50;99876.22;;;11.44;59.95
56042;BME280;48756;41.374;2.066;2024-02-23T06:06:15;99883.19;;;11.43;59.75
56042;BME280;48756;41.374;2.066;2024-02-23T06:08:40;99892.78;;;11.41;57.66
56042;BME280;48756;41.374;2.066;2024-02-23T06:11:06;99897.16;;;11.41;59.47
56042;BME280;48756;41.374;2.066;2024-02-23T06:13:32;99901.69;;;11.34;57.38
56042;BME280;48756;41.374;2.066;2024-02-23T06:15:57;99902.22;;;11.47;59.13
56042;BME280;48756;41.374;2.066;2024-02-23T06:18:23;99898.50;;;11.55;60.02
56042;BME280;48756;41.374;2.066;2024-02-23T06:20:49;99905.31;;;11.27;58.28
56042;BME280;48756;41.374;2.066;2024-02-23T06:23:14;99899.28;;;11.25;58.79
56042;BME280;48756;41.374;2.066;2024-02-23T06:25:39;99910.88;;;11.47;58.85
56042;BME280;48756;41.374;2.066;2024-02-23T06:28:05;99911.31;;;11.32;56.69
56042;BME280;48756;41.374;2.066;2024-02-23T06:30:31;99911.06;;;11.05;56.13
56042;BME280;48756;41.374;2.066;2024-02-23T06:32:56;99917.88;;;11.13;57.15
56042;BME280;48756;41.374;2.066;2024-02-23T06:35:22;99911.44;;;10.92;58.17
56042;BME280;48756;41.374;2.066;2024-02-23T06:37:47;99920.31;;;10.83;59.32
56042;BME280;48756;41.374;2.066;2024-02-23T06:40:12;99924.84;;;10.75;59.48
56042;BME280;48756;41.374;2.066;2024-02-23T06:42:40;99921.13;;;10.85;60.96
56042;BME280;48756;41.374;2.066;2024-02-23T06:45:06;99933.97;;;10.56;59.97
56042;BME280;48756;41.374;2.066;2024-02-23T06:47:32;99934.47;;;10.71;59.92
56042;BME280;48756;41.374;2.066;2024-02-23T06:49:58;99938.00;;;11.06;61.43
56042;BME280;48756;41.374;2.066;2024-02-23T06:52:23;99946.63;;;11.08;60.03
56042;BME280;48756;41.374;2.066;2024-02-23T06:54:48;99951.91;;;11.42;59.26
56042;BME280;48756;41.374;2.066;2024-02-23T06:57:14;99950.50;;;11.63;58.82
56042;BME280;48756;41.374;2.066;2024-02-23T06:59:39;99966.41;;;11.52;58.37
56042;BME280;48756;41.374;2.066;2024-02-23T07:02:04;99972.34;;;11.59;57.70
56042;BME280;48756;41.374;2.066;2024-02-23T07:04:30;99973.47;;;11.49;58.17
56042;BME280;48756;41.374;2.066;2024-02-23T07:06:57;99980.84;;;11.31;59.21
56042;BME280;48756;41.374;2.066;2024-02-23T07:09:23;99993.69;;;11.73;59.70
56042;BME280;48756;41.374;2.066;2024-02-23T07:11:48;99994.97;;;11.92;59.38
56042;BME280;48756;41.374;2.066;2024-02-23T07:14:13;100001.44;;;11.76;56.28
56042;BME280;48756;41.374;2.066;2024-02-23T07:16:42;99999.69;;;12.11;56.24
56042;BME280;48756;41.374;2.066;2024-02-23T07:19:07;100002.97;;;11.86;56.90
56042;BME280;48756;41.374;2.066;2024-02-23T07:21:33;100007.38;;;11.84;55.89
56042;BME280;48756;41.374;2.066;2024-02-23T07:23:59;100009.06;;;11.87;58.27
56042;BME280;48756;41.374;2.066;2024-02-23T07:26:24;100004.00;;;11.45;58.19
56042;BME280;48756;41.374;2.066;2024-02-23T07:28:50;100013.41;;;11.86;58.42
56042;BME280;48756;41.374;2.066;2024-02-23T07:31:15;100008.16;;;12.19;58.44
56042;BME280;48756;41.374;2.066;2024-02-23T07:33:42;100014.59;;;12.07;56.18
56042;BME280;48756;41.374;2.066;2024-02-23T07:36:07;100017.56;;;11.93;55.65
56042;BME280;48756;41.374;2.066;2024-02-23T07:38:34;100025.06;;;11.72;56.79
56042;BME280;48756;41.374;2.066;2024-02-23T07:40:59;100031.75;;;12.16;55.97
56042;BME280;48756;41.374;2.066;2024-02-23T07:43:24;100035.94;;;11.90;56.57
56042;BME280;48756;41.374;2.066;2024-02-23T07:45:51;100038.50;;;11.92;55.81
56042;BME280;48756;41.374;2.066;2024-02-23T07:48:16;100033.09;;;11.98;54.71
56042;BME280;48756;41.374;2.066;2024-02-23T07:50:42;100046.06;;;12.03;56.45
56042;BME280;48756;41.374;2.066;2024-02-23T07:53:07;100034.16;;;12.25;56.03
56042;BME280;48756;41.374;2.066;2024-02-23T07:55:32;100044.16;;;12.40;55.34
56042;BME280;48756;41.374;2.066;2024-02-23T07:57:58;100042.25;;;12.47;55.05
56042;BME280;48756;41.374;2.066;2024-02-23T08:00:26;100048.28;;;12.49;55.72
56042;BME280;48756;41.374;2.066;2024-02-23T08:02:51;100052.31;;;12.30;52.34
56042;BME280;48756;41.374;2.066;2024-02-23T08:05:17;100041.75;;;12.33;52.92
56042;BME280;48756;41.374;2.066;2024-02-23T08:07:42;100039.88;;;12.38;51.87
56042;BME280;48756;41.374;2.066;2024-02-23T08:10:08;100042.63;;;12.33;50.18
56042;BME280;48756;41.374;2.066;2024-02-23T08:12:34;100038.84;;;12.74;50.90
56042;BME280;48756;41.374;2.066;2024-02-23T08:14:59;100045.06;;;12.70;50.14
56042;BME280;48756;41.374;2.066;2024-02-23T08:17:25;100039.19;;;12.92;50.25
56042;BME280;48756;41.374;2.066;2024-02-23T08:19:51;100050.81;;;12.52;48.27
56042;BME280;48756;41.374;2.066;2024-02-23T08:22:16;100044.09;;;12.73;47.59
56042;BME280;48756;41.374;2.066;2024-02-23T08:24:41;100051.63;;;13.13;50.11
56042;BME280;48756;41.374;2.066;2024-02-23T08:27:07;100063.44;;;13.81;51.90
56042;BME280;48756;41.374;2.066;2024-02-23T08:29:32;100058.44;;;13.73;53.27
56042;BME280;48756;41.374;2.066;2024-02-23T08:31:57;100062.38;;;13.86;52.25
56042;BME280;48756;41.374;2.066;2024-02-23T08:34:23;100058.91;;;14.10;54.26
56042;BME280;48756;41.374;2.066;2024-02-23T08:36:52;100061.38;;;13.64;53.18
56042;BME280;48756;41.374;2.066;2024-02-23T08:39:17;100062.69;;;13.23;54.93
56042;BME280;48756;41.374;2.066;2024-02-23T08:41:42;100070.00;;;12.80;54.83
56042;BME280;48756;41.374;2.066;2024-02-23T08:44:07;100063.13;;;12.78;52.22
56042;BME280;48756;41.374;2.066;2024-02-23T08:46:35;100051.38;;;12.93;50.44
56042;BME280;48756;41.374;2.066;2024-02-23T08:49:02;100054.94;;;12.90;52.40
56042;BME280;48756;41.374;2.066;2024-02-23T08:51:27;100053.25;;;13.71;50.74
56042;BME280;48756;41.374;2.066;2024-02-23T08:53:53;100056.94;;;13.66;48.11
56042;BME280;48756;41.374;2.066;2024-02-23T08:56:18;100061.44;;;13.34;47.68
56042;BME280;48756;41.374;2.066;2024-02-23T08:58:44;100054.59;;;13.30;49.74
56042;BME280;48756;41.374;2.066;2024-02-23T09:01:09;100062.19;;;12.80;50.87
56042;BME280;48756;41.374;2.066;2024-02-23T09:03:34;100069.34;;;12.43;49.74
56042;BME280;48756;41.374;2.066;2024-02-23T09:06:00;100065.31;;;12.31;51.27
56042;BME280;48756;41.374;2.066;2024-02-23T09:08:25;100068.41;;;13.34;49.65
56042;BME280;48756;41.374;2.066;2024-02-23T09:10:50;100067.00;;;13.52;49.10
56042;BME280;48756;41.374;2.066;2024-02-23T09:13:16;100074.25;;;13.43;50.03
56042;BME280;48756;41.374;2.066;2024-02-23T09:15:41;100063.47;;;13.53;48.24
56042;BME280;48756;41.374;2.066;2024-02-23T09:18:07;100061.47;;;13.87;48.75
56042;BME280;48756;41.374;2.066;2024-02-23T09:20:33;100054.03;;;14.25;48.90
56042;BME280;48756;41.374;2.066;2024-02-23T09:22:58;100056.91;;;13.92;46.73
56042;BME280;48756;41.374;2.066;2024-02-23T09:25:23;100055.03;;;13.71;47.79
56042;BME280;48756;41.374;2.066;2024-02-23T09:27:49;100063.38;;;13.82;47.41
56042;BME280;48756;41.374;2.066;2024-02-23T09:30:14;100059.25;;;14.00;45.75
56042;BME280;48756;41.374;2.066;2024-02-23T09:32:40;100064.34;;;13.25;46.86
56042;BME280;48756;41.374;2.066;2024-02-23T09:35:05;100062.06;;;13.42;48.13
56042;BME280;48756;41.374;2.066;2024-02-23T09:37:34;100053.84;;;14.06;47.63
56042;BME280;48756;41.374;2.066;2024-02-23T09:40:02;100046.47;;;14.89;45.75
56042;BME280;48756;41.374;2.066;2024-02-23T09:42:28;100061.16;;;14.21;45.64
56042;BME280;48756;41.374;2.066;2024-02-23T09:44:59;100054.22;;;14.92;45.09
56042;BME280;48756;41.374;2.066;2024-02-23T09:47:26;100052.06;;;14.31;45.36
56042;BME280;48756;41.374;2.066;2024-02-23T09:49:53;100051.16;;;14.07;46.56
56042;BME280;48756;41.374;2.066;2024-02-23T09:52:19;100045.81;;;14.10;45.96
56042;BME280;48756;41.374;2.066;2024-02-23T09:54:48;100046.09;;;14.28;46.40
56042;BME280;48756;41.374;2.066;2024-02-23T09:57:13;100049.09;;;14.65;49.04
56042;BME280;48756;41.374;2.066;2024-02-23T09:59:39;100040.84;;;14.28;52.64
56042;BME280;48756;41.374;2.066;2024-02-23T10:02:07;100036.28;;;14.58;53.61
56042;BME280;48756;41.374;2.066;2024-02-23T10:04:33;100049.03;;;14.67;55.01
56042;BME280;48756;41.374;2.066;2024-02-23T10:06:59;100053.44;;;14.66;56.70
56042;BME280;48756;41.374;2.066;2024-02-23T10:09:24;100060.19;;;14.74;58.24
56042;BME280;48756;41.374;2.066;2024-02-23T10:11:53;100061.34;;;14.65;58.65
56042;BME280;48756;41.374;2.066;2024-02-23T10:14:18;100058.00;;;14.85;57.01
56042;BME280;48756;41.374;2.066;2024-02-23T10:16:44;100056.53;;;15.23;57.99
56042;BME280;48756;41.374;2.066;2024-02-23T10:19:09;100064.88;;;14.87;58.17
56042;BME280;48756;41.374;2.066;2024-02-23T10:21:34;100053.16;;;14.74;58.66
56042;BME280;48756;41.374;2.066;2024-02-23T10:24:00;100051.97;;;14.34;50.87
56042;BME280;48756;41.374;2.066;2024-02-23T10:26:30;100039.38;;;14.91;49.33
56042;BME280;48756;41.374;2.066;2024-02-23T10:28:59;100042.44;;;15.69;47.67
56042;BME280;48756;41.374;2.066;2024-02-23T10:31:24;100038.50;;;15.36;51.32
56042;BME280;48756;41.374;2.066;2024-02-23T10:33:50;100035.44;;;15.90;51.02
56042;BME280;48756;41.374;2.066;2024-02-23T10:36:20;100020.38;;;15.29;47.99
56042;BME280;48756;41.374;2.066;2024-02-23T10:38:47;100021.03;;;15.56;46.20
56042;BME280;48756;41.374;2.066;2024-02-23T10:41:16;100017.63;;;15.76;47.62
56042;BME280;48756;41.374;2.066;2024-02-23T10:43:46;100011.59;;;15.09;46.19
56042;BME280;48756;41.374;2.066;2024-02-23T10:46:12;100017.03;;;15.26;44.18
56042;BME280;48756;41.374;2.066;2024-02-23T10:48:41;100022.22;;;15.06;50.23
56042;BME280;48756;41.374;2.066;2024-02-23T10:51:06;100027.66;;;15.45;52.14
56042;BME280;48756;41.374;2.066;2024-02-23T10:53:32;100024.44;;;15.16;53.01
56042;BME280;48756;41.374;2.066;2024-02-23T10:55:57;100013.88;;;15.40;51.87
56042;BME280;48756;41.374;2.066;2024-02-23T10:58:23;100015.00;;;15.32;50.10
56042;BME280;48756;41.374;2.066;2024-02-23T11:00:49;100021.16;;;15.53;50.46
56042;BME280;48756;41.374;2.066;2024-02-23T11:03:14;100027.03;;;15.60;49.56
56042;BME280;48756;41.374;2.066;2024-02-23T11:05:40;100030.88;;;15.08;51.53
56042;BME280;48756;41.374;2.066;2024-02-23T11:08:05;100018.88;;;15.68;47.96
56042;BME280;48756;41.374;2.066;2024-02-23T11:10:31;100016.25;;;15.68;37.89
56042;BME280;48756;41.374;2.066;2024-02-23T11:12:57;100005.16;;;15.38;36.32
56042;BME280;48756;41.374;2.066;2024-02-23T11:15:26;100012.94;;;16.03;37.13
56042;BME280;48756;41.374;2.066;2024-02-23T11:17:51;100006.38;;;16.34;34.98
56042;BME280;48756;41.374;2.066;2024-02-23T11:20:16;100008.44;;;16.65;35.28
56042;BME280;48756;41.374;2.066;2024-02-23T11:22:42;100008.75;;;15.99;35.55
56042;BME280;48756;41.374;2.066;2024-02-23T11:25:07;100007.91;;;15.78;35.26
56042;BME280;48756;41.374;2.066;2024-02-23T11:27:36;100012.94;;;16.23;35.41
56042;BME280;48756;41.374;2.066;2024-02-23T11:30:03;100003.97;;;15.88;34.71
56042;BME280;48756;41.374;2.066;2024-02-23T11:32:35;100004.56;;;15.53;35.46
56042;BME280;48756;41.374;2.066;2024-02-23T11:35:02;99995.03;;;16.13;35.62
56042;BME280;48756;41.374;2.066;2024-02-23T11:37:30;99984.81;;;16.05;35.30
56042;BME280;48756;41.374;2.066;2024-02-23T11:39:56;99991.22;;;16.39;35.43
56042;BME280;48756;41.374;2.066;2024-02-23T11:42:23;99998.25;;;16.38;34.70
56042;BME280;48756;41.374;2.066;2024-02-23T11:44:49;99980.56;;;16.42;34.16
56042;BME280;48756;41.374;2.066;2024-02-23T11:47:15;99982.28;;;16.04;34.87
56042;BME280;48756;41.374;2.066;2024-02-23T11:49:42;99993.88;;;16.18;34.21
56042;BME280;48756;41.374;2.066;2024-02-23T11:52:07;99981.81;;;16.14;34.21
56042;BME280;48756;41.374;2.066;2024-02-23T11:54:32;99975.72;;;16.51;33.83
56042;BME280;48756;41.374;2.066;2024-02-23T11:56:58;99983.88;;;16.08;34.19
56042;BME280;48756;41.374;2.066;2024-02-23T11:59:25;99999.38;;;15.73;34.77
56042;BME280;48756;41.374;2.066;2024-02-23T12:01:50;99975.34;;;16.21;34.63
56042;BME280;48756;41.374;2.066;2024-02-23T12:04:16;99981.63;;;15.99;34.87
56042;BME280;48756;41.374;2.066;2024-02-23T12:06:41;99972.09;;;16.16;33.92
56042;BME280;48756;41.374;2.066;2024-02-23T12:09:07;99984.41;;;15.53;34.63
56042;BME280;48756;41.374;2.066;2024-02-23T12:11:32;99971.88;;;15.60;35.12
56042;BME280;48756;41.374;2.066;2024-02-23T12:13:58;99959.25;;;15.06;35.27
56042;BME280;48756;41.374;2.066;2024-02-23T12:16:23;99955.13;;;15.64;34.44
56042;BME280;48756;41.374;2.066;2024-02-23T12:18:57;99961.53;;;15.77;34.70
56042;BME280;48756;41.374;2.066;2024-02-23T12:21:23;99963.78;;;15.44;34.26
56042;BME280;48756;41.374;2.066;2024-02-23T12:23:50;99961.81;;;15.71;34.20
56042;BME280;48756;41.374;2.066;2024-02-23T12:26:18;99943.50;;;15.48;34.09
56042;BME280;48756;41.374;2.066;2024-02-23T12:28:44;99952.88;;;15.75;33.56
56042;BME280;48756;41.374;2.066;2024-02-23T12:31:09;99942.44;;;15.31;34.30
56042;BME280;48756;41.374;2.066;2024-02-23T12:33:36;99934.34;;;15.78;33.42
56042;BME280;48756;41.374;2.066;2024-02-23T12:36:02;99921.81;;;16.04;32.92
56042;BME280;48756;41.374;2.066;2024-02-23T12:38:28;99924.13;;;16.49;32.19
56042;BME280;48756;41.374;2.066;2024-02-23T12:40:53;99928.59;;;16.09;32.82
56042;BME280;48756;41.374;2.066;2024-02-23T12:43:19;99937.41;;;16.08;32.09
56042;BME280;48756;41.374;2.066;2024-02-23T12:45:50;99931.13;;;16.31;32.61
56042;BME280;48756;41.374;2.066;2024-02-23T12:48:16;99917.66;;;15.79;32.82
56042;BME280;48756;41.374;2.066;2024-02-23T12:50:41;99919.69;;;16.70;31.93